sensor_id;sensor_type;location;lat;lon;timestamp;P1;durP1;ratioP1;P2;durP2;ratioP2
9310;SDS011;4694;52.464;13.480;2023-06-22T00:02:01;19.90;;;15.40;;
9310;SDS011;4694;52.464;13.480;2023-06-22T00:04:28;16.33;;;13.82;;
9310;SDS011;4694;52.464;13.480;2023-06-22T00:06:54;18.00;;;15.68;;
9310;SDS011;4694;52.464;13.480;2023-06-22T00:09:21;19.65;;;15.25;;
9310;SDS011;4694;52.464;13.480;2023-06-22T00:11:47;20.90;;;14.32;;
9310;SDS011;4694;52.464;13.480;2023-06-22T00:14:14;16.95;;;13.00;;
9310;SDS011;4694;52.464;13.480;2023-06-22T00:16:42;17.42;;;14.80;;
9310;SDS011;4694;52.464;13.480;2023-06-22T00:19:09;19.48;;;14.05;;
9310;SDS011;4694;52.464;13.480;2023-06-22T00:21:36;17.80;;;13.85;;
9310;SDS011;4694;52.464;13.480;2023-06-22T00:24:04;17.67;;;13.70;;
9310;SDS011;4694;52.464;13.480;2023-06-22T00:26:31;16.60;;;13.00;;
9310;SDS011;4694;52.464;13.480;2023-06-22T00:28:58;17.33;;;13.45;;
9310;SDS011;4694;52.464;13.480;2023-06-22T00:31:24;21.00;;;14.15;;
9310;SDS011;4694;52.464;13.480;2023-06-22T00:33:52;17.90;;;14.40;;
9310;SDS011;4694;52.464;13.480;2023-06-22T00:36:20;16.50;;;14.00;;
9310;SDS011;4694;52.464;13.480;2023-06-22T00:41:16;17.25;;;14.07;;
9310;SDS011;4694;52.464;13.480;2023-06-22T00:43:43;17.50;;;13.40;;
9310;SDS011;4694;52.464;13.480;2023-06-22T00:46:09;15.50;;;13.55;;
9310;SDS011;4694;52.464;13.480;2023-06-22T00:48:36;19.02;;;14.32;;
9310;SDS011;4694;52.464;13.480;2023-06-22T00:51:06;18.70;;;14.77;;
9310;SDS011;4694;52.464;13.480;2023-06-22T00:53:33;15.85;;;13.55;;
9310;SDS011;4694;52.464;13.480;2023-06-22T00:56:02;19.85;;;14.90;;
9310;SDS011;4694;52.464;13.480;2023-06-22T00:58:29;18.65;;;14.13;;
9310;SDS011;4694;52.464;13.480;2023-06-22T01:00:56;19.60;;;14.27;;
9310;SDS011;4694;52.464;13.480;2023-06-22T01:03:23;15.93;;;13.18;;
9310;SDS011;4694;52.464;13.480;2023-06-22T01:05:49;17.58;;;12.95;;
9310;SDS011;4694;52.464;13.480;2023-06-22T01:08:23;17.38;;;13.90;;
9310;SDS011;4694;52.464;13.480;2023-06-22T01:10:56;15.57;;;12.32;;
9310;SDS011;4694;52.464;13.480;2023-06-22T01:13:30;16.20;;;12.93;;
9310;SDS011;4694;52.464;13.480;2023-06-22T01:16:05;17.42;;;13.30;;
9310;SDS011;4694;52.464;13.480;2023-06-22T01:18:37;18.38;;;13.02;;
9310;SDS011;4694;52.464;13.480;2023-06-22T01:23:42;16.63;;;13.25;;
9310;SDS011;4694;52.464;13.480;2023-06-22T01:26:22;16.02;;;12.70;;
9310;SDS011;4694;52.464;13.480;2023-06-22T01:29:01;15.25;;;12.75;;
9310;SDS011;4694;52.464;13.480;2023-06-22T01:31:31;17.80;;;14.05;;
9310;SDS011;4694;52.464;13.480;2023-06-22T01:34:00;17.48;;;13.18;;
9310;SDS011;4694;52.464;13.480;2023-06-22T01:36:30;20.20;;;15.05;;
9310;SDS011;4694;52.464;13.480;2023-06-22T01:38:59;16.10;;;13.68;;
9310;SDS011;4694;52.464;13.480;2023-06-22T01:41:26;16.73;;;13.65;;
9310;SDS011;4694;52.464;13.480;2023-06-22T01:43:56;19.40;;;13.68;;
9310;SDS011;4694;52.464;13.480;2023-06-22T01:46:24;17.35;;;14.52;;
9310;SDS011;4694;52.464;13.480;2023-06-22T01:48:51;17.55;;;13.77;;
9310;SDS011;4694;52.464;13.480;2023-06-22T01:51:18;18.40;;;13.50;;
9310;SDS011;4694;52.464;13.480;2023-06-22T01:53:45;18.10;;;13.73;;
9310;SDS011;4694;52.464;13.480;2023-06-22T01:56:12;18.92;;;14.13;;
9310;SDS011;4694;52.464;13.480;2023-06-22T01:58:43;19.42;;;14.90;;
9310;SDS011;4694;52.464;13.480;2023-06-22T02:01:15;18.17;;;14.05;;
9310;SDS011;4694;52.464;13.480;2023-06-22T02:03:52;17.20;;;14.38;;
9310;SDS011;4694;52.464;13.480;2023-06-22T02:06:25;17.55;;;14.23;;
9310;SDS011;4694;52.464;13.480;2023-06-22T02:09:00;18.30;;;15.25;;
9310;SDS011;4694;52.464;13.480;2023-06-22T02:11:32;16.80;;;14.23;;
9310;SDS011;4694;52.464;13.480;2023-06-22T02:14:00;19.35;;;15.82;;
9310;SDS011;4694;52.464;13.480;2023-06-22T02:16:29;18.80;;;15.02;;
9310;SDS011;4694;52.464;13.480;2023-06-22T02:18:58;22.38;;;16.30;;
9310;SDS011;4694;52.464;13.480;2023-06-22T02:21:29;20.13;;;15.10;;
9310;SDS011;4694;52.464;13.480;2023-06-22T02:23:56;16.50;;;13.63;;
9310;SDS011;4694;52.464;13.480;2023-06-22T02:26:23;17.55;;;15.18;;
9310;SDS011;4694;52.464;13.480;2023-06-22T02:28:50;15.02;;;13.05;;
9310;SDS011;4694;52.464;13.480;2023-06-22T02:31:17;16.73;;;13.65;;
9310;SDS011;4694;52.464;13.480;2023-06-22T02:33:44;18.48;;;14.98;;
9310;SDS011;4694;52.464;13.480;2023-06-22T02:36:12;16.90;;;14.30;;
9310;SDS011;4694;52.464;13.480;2023-06-22T02:38:40;15.70;;;14.10;;
9310;SDS011;4694;52.464;13.480;2023-06-22T02:41:13;18.42;;;15.50;;
9310;SDS011;4694;52.464;13.480;2023-06-22T02:43:43;17.75;;;14.73;;
9310;SDS011;4694;52.464;13.480;2023-06-22T02:46:09;16.67;;;14.95;;
9310;SDS011;4694;52.464;13.480;2023-06-22T02:48:36;18.42;;;15.63;;
9310;SDS011;4694;52.464;13.480;2023-06-22T02:51:03;22.95;;;15.57;;
9310;SDS011;4694;52.464;13.480;2023-06-22T02:53:31;20.75;;;17.02;;
9310;SDS011;4694;52.464;13.480;2023-06-22T02:55:57;18.10;;;15.98;;
9310;SDS011;4694;52.464;13.480;2023-06-22T02:58:26;20.55;;;17.17;;
9310;SDS011;4694;52.464;13.480;2023-06-22T03:00:53;22.42;;;17.33;;
9310;SDS011;4694;52.464;13.480;2023-06-22T03:03:19;23.13;;;17.63;;
9310;SDS011;4694;52.464;13.480;2023-06-22T03:05:46;21.70;;;17.10;;
9310;SDS011;4694;52.464;13.480;2023-06-22T03:08:13;25.00;;;20.35;;
9310;SDS011;4694;52.464;13.480;2023-06-22T03:10:41;21.85;;;19.55;;
9310;SDS011;4694;52.464;13.480;2023-06-22T03:13:07;25.08;;;18.20;;
9310;SDS011;4694;52.464;13.480;2023-06-22T03:15:34;25.48;;;17.95;;
9310;SDS011;4694;52.464;13.480;2023-06-22T03:18:01;21.83;;;17.63;;
9310;SDS011;4694;52.464;13.480;2023-06-22T03:20:27;27.80;;;19.35;;
9310;SDS011;4694;52.464;13.480;2023-06-22T03:22:58;23.95;;;18.00;;
9310;SDS011;4694;52.464;13.480;2023-06-22T03:25:25;24.33;;;19.55;;
9310;SDS011;4694;52.464;13.480;2023-06-22T03:27:53;24.30;;;17.42;;
9310;SDS011;4694;52.464;13.480;2023-06-22T03:30:19;21.25;;;16.95;;
9310;SDS011;4694;52.464;13.480;2023-06-22T03:32:47;25.60;;;18.88;;
9310;SDS011;4694;52.464;13.480;2023-06-22T03:35:14;22.85;;;17.33;;
9310;SDS011;4694;52.464;13.480;2023-06-22T03:37:41;23.33;;;18.75;;
9310;SDS011;4694;52.464;13.480;2023-06-22T03:40:08;23.25;;;17.73;;
9310;SDS011;4694;52.464;13.480;2023-06-22T03:42:35;23.70;;;17.88;;
9310;SDS011;4694;52.464;13.480;2023-06-22T03:45:03;22.38;;;17.02;;
9310;SDS011;4694;52.464;13.480;2023-06-22T03:47:31;25.15;;;17.95;;
9310;SDS011;4694;52.464;13.480;2023-06-22T03:49:58;27.02;;;19.63;;
9310;SDS011;4694;52.464;13.480;2023-06-22T03:52:25;23.55;;;18.08;;
9310;SDS011;4694;52.464;13.480;2023-06-22T03:54:52;20.90;;;17.27;;
9310;SDS011;4694;52.464;13.480;2023-06-22T03:57:18;24.35;;;18.80;;
9310;SDS011;4694;52.464;13.480;2023-06-22T03:59:45;21.30;;;19.00;;
9310;SDS011;4694;52.464;13.480;2023-06-22T04:02:13;22.83;;;18.67;;
9310;SDS011;4694;52.464;13.480;2023-06-22T04:04:39;22.40;;;17.85;;
9310;SDS011;4694;52.464;13.480;2023-06-22T04:07:06;36.30;;;20.58;;
9310;SDS011;4694;52.464;13.480;2023-06-22T04:09:33;23.33;;;17.40;;
9310;SDS011;4694;52.464;13.480;2023-06-22T04:12:00;22.00;;;17.30;;
9310;SDS011;4694;52.464;13.480;2023-06-22T04:14:27;26.02;;;19.40;;
9310;SDS011;4694;52.464;13.480;2023-06-22T04:16:54;22.17;;;17.05;;
9310;SDS011;4694;52.464;13.480;2023-06-22T04:19:22;24.05;;;18.90;;
9310;SDS011;4694;52.464;13.480;2023-06-22T04:21:48;21.90;;;17.75;;
9310;SDS011;4694;52.464;13.480;2023-06-22T04:24:15;24.48;;;16.88;;
9310;SDS011;4694;52.464;13.480;2023-06-22T04:26:42;20.92;;;16.83;;
9310;SDS011;4694;52.464;13.480;2023-06-22T04:29:10;23.33;;;15.43;;
9310;SDS011;4694;52.464;13.480;2023-06-22T04:31:37;20.90;;;16.58;;
9310;SDS011;4694;52.464;13.480;2023-06-22T04:34:05;21.23;;;16.90;;
9310;SDS011;4694;52.464;13.480;2023-06-22T04:36:37;18.58;;;15.10;;
9310;SDS011;4694;52.464;13.480;2023-06-22T04:39:05;19.33;;;15.32;;
9310;SDS011;4694;52.464;13.480;2023-06-22T04:41:34;22.50;;;14.27;;
9310;SDS011;4694;52.464;13.480;2023-06-22T04:44:09;19.58;;;14.15;;
9310;SDS011;4694;52.464;13.480;2023-06-22T04:46:36;17.23;;;13.45;;
9310;SDS011;4694;52.464;13.480;2023-06-22T04:49:04;19.42;;;15.57;;
9310;SDS011;4694;52.464;13.480;2023-06-22T04:51:38;20.70;;;14.52;;
9310;SDS011;4694;52.464;13.480;2023-06-22T04:54:06;18.52;;;13.88;;
9310;SDS011;4694;52.464;13.480;2023-06-22T04:56:34;13.88;;;12.40;;
9310;SDS011;4694;52.464;13.480;2023-06-22T04:59:01;18.15;;;13.35;;
9310;SDS011;4694;52.464;13.480;2023-06-22T05:01:28;17.42;;;12.77;;
9310;SDS011;4694;52.464;13.480;2023-06-22T05:03:55;19.75;;;13.15;;
9310;SDS011;4694;52.464;13.480;2023-06-22T05:06:23;15.27;;;12.70;;
9310;SDS011;4694;52.464;13.480;2023-06-22T05:08:52;16.90;;;13.75;;
9310;SDS011;4694;52.464;13.480;2023-06-22T05:11:23;12.85;;;11.55;;
9310;SDS011;4694;52.464;13.480;2023-06-22T05:13:50;16.83;;;12.60;;
9310;SDS011;4694;52.464;13.480;2023-06-22T05:16:17;13.88;;;11.00;;
9310;SDS011;4694;52.464;13.480;2023-06-22T05:18:49;14.63;;;11.95;;
9310;SDS011;4694;52.464;13.480;2023-06-22T05:21:21;14.52;;;10.20;;
9310;SDS011;4694;52.464;13.480;2023-06-22T05:23:49;16.38;;;10.32;;
9310;SDS011;4694;52.464;13.480;2023-06-22T05:26:17;12.30;;;10.00;;
9310;SDS011;4694;52.464;13.480;2023-06-22T05:28:44;13.20;;;11.73;;
9310;SDS011;4694;52.464;13.480;2023-06-22T05:31:14;11.57;;;9.90;;
9310;SDS011;4694;52.464;13.480;2023-06-22T05:33:41;13.77;;;10.10;;
9310;SDS011;4694;52.464;13.480;2023-06-22T05:36:09;11.13;;;9.43;;
9310;SDS011;4694;52.464;13.480;2023-06-22T05:38:36;14.93;;;10.48;;
9310;SDS011;4694;52.464;13.480;2023-06-22T05:41:02;15.63;;;12.20;;
9310;SDS011;4694;52.464;13.480;2023-06-22T05:43:31;10.20;;;9.20;;
9310;SDS011;4694;52.464;13.480;2023-06-22T05:45:57;10.43;;;9.32;;
9310;SDS011;4694;52.464;13.480;2023-06-22T05:48:24;9.95;;;9.07;;
9310;SDS011;4694;52.464;13.480;2023-06-22T05:50:51;11.70;;;8.82;;
9310;SDS011;4694;52.464;13.480;2023-06-22T05:53:17;10.55;;;8.23;;
9310;SDS011;4694;52.464;13.480;2023-06-22T05:55:44;8.98;;;7.68;;
9310;SDS011;4694;52.464;13.480;2023-06-22T05:58:11;8.05;;;7.07;;
9310;SDS011;4694;52.464;13.480;2023-06-22T06:00:39;8.50;;;6.25;;
9310;SDS011;4694;52.464;13.480;2023-06-22T06:03:08;11.98;;;7.22;;
9310;SDS011;4694;52.464;13.480;2023-06-22T06:05:35;7.72;;;6.25;;
9310;SDS011;4694;52.464;13.480;2023-06-22T06:08:03;9.60;;;6.95;;
9310;SDS011;4694;52.464;13.480;2023-06-22T06:10:31;9.00;;;6.38;;
9310;SDS011;4694;52.464;13.480;2023-06-22T06:12:58;12.38;;;6.72;;
9310;SDS011;4694;52.464;13.480;2023-06-22T06:15:27;6.35;;;5.75;;
9310;SDS011;4694;52.464;13.480;2023-06-22T06:17:55;7.18;;;6.43;;
9310;SDS011;4694;52.464;13.480;2023-06-22T06:20:23;9.13;;;6.53;;
9310;SDS011;4694;52.464;13.480;2023-06-22T06:22:50;8.20;;;7.10;;
9310;SDS011;4694;52.464;13.480;2023-06-22T06:25:18;11.35;;;6.72;;
9310;SDS011;4694;52.464;13.480;2023-06-22T06:27:46;11.00;;;6.78;;
9310;SDS011;4694;52.464;13.480;2023-06-22T06:30:14;11.10;;;6.40;;
9310;SDS011;4694;52.464;13.480;2023-06-22T06:32:43;7.68;;;6.15;;
9310;SDS011;4694;52.464;13.480;2023-06-22T06:35:12;6.78;;;5.45;;
9310;SDS011;4694;52.464;13.480;2023-06-22T06:37:41;6.85;;;4.82;;
9310;SDS011;4694;52.464;13.480;2023-06-22T06:40:10;6.17;;;5.57;;
9310;SDS011;4694;52.464;13.480;2023-06-22T06:42:38;9.68;;;5.68;;
9310;SDS011;4694;52.464;13.480;2023-06-22T06:45:07;7.97;;;4.80;;
9310;SDS011;4694;52.464;13.480;2023-06-22T06:47:34;5.05;;;4.50;;
9310;SDS011;4694;52.464;13.480;2023-06-22T06:50:01;4.90;;;4.40;;
9310;SDS011;4694;52.464;13.480;2023-06-22T06:52:31;6.75;;;5.00;;
9310;SDS011;4694;52.464;13.480;2023-06-22T06:54:57;9.02;;;5.28;;
9310;SDS011;4694;52.464;13.480;2023-06-22T06:57:24;5.38;;;4.28;;
9310;SDS011;4694;52.464;13.480;2023-06-22T06:59:53;8.00;;;4.40;;
9310;SDS011;4694;52.464;13.480;2023-06-22T07:02:21;5.28;;;4.78;;
9310;SDS011;4694;52.464;13.480;2023-06-22T07:04:47;5.22;;;4.63;;
9310;SDS011;4694;52.464;13.480;2023-06-22T07:07:14;5.72;;;4.28;;
9310;SDS011;4694;52.464;13.480;2023-06-22T07:09:43;4.88;;;4.45;;
9310;SDS011;4694;52.464;13.480;2023-06-22T07:12:09;5.88;;;4.03;;
9310;SDS011;4694;52.464;13.480;2023-06-22T07:14:36;4.47;;;3.85;;
9310;SDS011;4694;52.464;13.480;2023-06-22T07:17:03;4.93;;;3.45;;
9310;SDS011;4694;52.464;13.480;2023-06-22T07:19:29;4.40;;;3.97;;
9310;SDS011;4694;52.464;13.480;2023-06-22T07:21:56;5.15;;;2.88;;
9310;SDS011;4694;52.464;13.480;2023-06-22T07:24:23;3.47;;;3.17;;
9310;SDS011;4694;52.464;13.480;2023-06-22T07:26:52;3.67;;;3.03;;
9310;SDS011;4694;52.464;13.480;2023-06-22T07:29:19;6.30;;;3.53;;
9310;SDS011;4694;52.464;13.480;2023-06-22T07:31:46;6.43;;;3.60;;
9310;SDS011;4694;52.464;13.480;2023-06-22T07:34:14;4.03;;;3.63;;
9310;SDS011;4694;52.464;13.480;2023-06-22T07:36:41;5.57;;;3.20;;
9310;SDS011;4694;52.464;13.480;2023-06-22T07:39:08;3.42;;;3.17;;
9310;SDS011;4694;52.464;13.480;2023-06-22T07:41:35;7.05;;;2.72;;
9310;SDS011;4694;52.464;13.480;2023-06-22T07:44:03;5.22;;;3.10;;
9310;SDS011;4694;52.464;13.480;2023-06-22T07:46:31;3.35;;;2.70;;
9310;SDS011;4694;52.464;13.480;2023-06-22T07:48:58;3.80;;;3.35;;
9310;SDS011;4694;52.464;13.480;2023-06-22T07:51:26;2.80;;;2.60;;
9310;SDS011;4694;52.464;13.480;2023-06-22T07:53:52;4.03;;;3.20;;
9310;SDS011;4694;52.464;13.480;2023-06-22T07:56:20;4.50;;;3.92;;
9310;SDS011;4694;52.464;13.480;2023-06-22T07:58:48;4.55;;;3.60;;
9310;SDS011;4694;52.464;13.480;2023-06-22T08:01:16;4.70;;;3.95;;
9310;SDS011;4694;52.464;13.480;2023-06-22T08:03:45;3.50;;;3.20;;
9310;SDS011;4694;52.464;13.480;2023-06-22T08:06:13;4.03;;;3.28;;
9310;SDS011;4694;52.464;13.480;2023-06-22T08:08:39;3.55;;;3.08;;
9310;SDS011;4694;52.464;13.480;2023-06-22T08:11:07;4.88;;;3.03;;
9310;SDS011;4694;52.464;13.480;2023-06-22T08:13:34;5.47;;;2.60;;
9310;SDS011;4694;52.464;13.480;2023-06-22T08:16:01;4.97;;;3.67;;
9310;SDS011;4694;52.464;13.480;2023-06-22T08:18:29;3.50;;;3.20;;
9310;SDS011;4694;52.464;13.480;2023-06-22T08:20:55;3.95;;;3.05;;
9310;SDS011;4694;52.464;13.480;2023-06-22T08:23:23;4.53;;;2.90;;
9310;SDS011;4694;52.464;13.480;2023-06-22T08:25:50;3.15;;;2.83;;
9310;SDS011;4694;52.464;13.480;2023-06-22T08:28:17;3.35;;;3.05;;
9310;SDS011;4694;52.464;13.480;2023-06-22T08:30:43;6.75;;;3.13;;
9310;SDS011;4694;52.464;13.480;2023-06-22T08:33:10;3.28;;;2.97;;
9310;SDS011;4694;52.464;13.480;2023-06-22T08:35:39;2.67;;;2.47;;
9310;SDS011;4694;52.464;13.480;2023-06-22T08:38:05;4.53;;;3.15;;
9310;SDS011;4694;52.464;13.480;2023-06-22T08:40:32;2.88;;;2.45;;
9310;SDS011;4694;52.464;13.480;2023-06-22T08:42:59;4.50;;;2.92;;
9310;SDS011;4694;52.464;13.480;2023-06-22T08:45:26;5.82;;;2.42;;
9310;SDS011;4694;52.464;13.480;2023-06-22T08:47:52;3.90;;;2.53;;
9310;SDS011;4694;52.464;13.480;2023-06-22T08:50:19;2.05;;;1.85;;
9310;SDS011;4694;52.464;13.480;2023-06-22T08:52:47;3.00;;;2.35;;
9310;SDS011;4694;52.464;13.480;2023-06-22T08:55:14;2.58;;;2.17;;
9310;SDS011;4694;52.464;13.480;2023-06-22T08:57:41;2.85;;;2.33;;
9310;SDS011;4694;52.464;13.480;2023-06-22T09:00:09;3.83;;;3.00;;
9310;SDS011;4694;52.464;13.480;2023-06-22T09:02:41;3.13;;;2.85;;
9310;SDS011;4694;52.464;13.480;2023-06-22T09:05:08;7.13;;;3.08;;
9310;SDS011;4694;52.464;13.480;2023-06-22T09:07:35;3.50;;;3.15;;
9310;SDS011;4694;52.464;13.480;2023-06-22T09:10:03;3.95;;;2.92;;
9310;SDS011;4694;52.464;13.480;2023-06-22T09:12:30;3.63;;;3.38;;
9310;SDS011;4694;52.464;13.480;2023-06-22T09:14:58;4.93;;;3.63;;
9310;SDS011;4694;52.464;13.480;2023-06-22T09:17:25;3.78;;;2.65;;
9310;SDS011;4694;52.464;13.480;2023-06-22T09:19:52;4.60;;;2.70;;
9310;SDS011;4694;52.464;13.480;2023-06-22T09:22:19;2.95;;;2.65;;
9310;SDS011;4694;52.464;13.480;2023-06-22T09:24:45;4.50;;;3.08;;
9310;SDS011;4694;52.464;13.480;2023-06-22T09:27:13;3.50;;;3.20;;
9310;SDS011;4694;52.464;13.480;2023-06-22T09:29:40;6.78;;;3.33;;
9310;SDS011;4694;52.464;13.480;2023-06-22T09:32:07;4.63;;;2.85;;
9310;SDS011;4694;52.464;13.480;2023-06-22T09:34:33;2.78;;;2.58;;
9310;SDS011;4694;52.464;13.480;2023-06-22T09:37:00;3.28;;;2.83;;
9310;SDS011;4694;52.464;13.480;2023-06-22T09:39:27;5.80;;;3.40;;
9310;SDS011;4694;52.464;13.480;2023-06-22T09:41:53;4.32;;;3.05;;
9310;SDS011;4694;52.464;13.480;2023-06-22T09:44:21;4.80;;;3.20;;
9310;SDS011;4694;52.464;13.480;2023-06-22T09:46:48;3.72;;;2.97;;
9310;SDS011;4694;52.464;13.480;2023-06-22T09:49:15;4.60;;;3.20;;
9310;SDS011;4694;52.464;13.480;2023-06-22T09:51:41;3.05;;;2.75;;
9310;SDS011;4694;52.464;13.480;2023-06-22T09:54:08;3.17;;;2.85;;
9310;SDS011;4694;52.464;13.480;2023-06-22T09:56:34;3.42;;;3.13;;
9310;SDS011;4694;52.464;13.480;2023-06-22T09:59:02;3.85;;;3.30;;
9310;SDS011;4694;52.464;13.480;2023-06-22T10:01:30;3.72;;;3.17;;
9310;SDS011;4694;52.464;13.480;2023-06-22T10:03:57;4.50;;;4.10;;
9310;SDS011;4694;52.464;13.480;2023-06-22T10:06:24;3.35;;;2.92;;
9310;SDS011;4694;52.464;13.480;2023-06-22T10:08:51;3.78;;;2.75;;
9310;SDS011;4694;52.464;13.480;2023-06-22T10:11:18;4.63;;;2.83;;
9310;SDS011;4694;52.464;13.480;2023-06-22T10:13:44;4.28;;;3.35;;
9310;SDS011;4694;52.464;13.480;2023-06-22T10:16:11;5.28;;;3.15;;
9310;SDS011;4694;52.464;13.480;2023-06-22T10:18:39;3.53;;;2.88;;
9310;SDS011;4694;52.464;13.480;2023-06-22T10:21:06;4.07;;;2.78;;
9310;SDS011;4694;52.464;13.480;2023-06-22T10:23:33;2.67;;;2.47;;
9310;SDS011;4694;52.464;13.480;2023-06-22T10:25:59;2.75;;;2.55;;
9310;SDS011;4694;52.464;13.480;2023-06-22T10:28:26;4.40;;;3.05;;
9310;SDS011;4694;52.464;13.480;2023-06-22T10:30:53;2.75;;;2.55;;
9310;SDS011;4694;52.464;13.480;2023-06-22T10:33:19;3.50;;;2.40;;
9310;SDS011;4694;52.464;13.480;2023-06-22T10:35:47;5.18;;;2.80;;
9310;SDS011;4694;52.464;13.480;2023-06-22T10:38:14;2.92;;;2.30;;
9310;SDS011;4694;52.464;13.480;2023-06-22T10:40:41;5.15;;;2.53;;
9310;SDS011;4694;52.464;13.480;2023-06-22T10:43:08;2.42;;;2.30;;
9310;SDS011;4694;52.464;13.480;2023-06-22T10:45:34;3.47;;;2.55;;
9310;SDS011;4694;52.464;13.480;2023-06-22T10:48:01;2.83;;;2.30;;
9310;SDS011;4694;52.464;13.480;2023-06-22T10:50:27;3.80;;;2.63;;
9310;SDS011;4694;52.464;13.480;2023-06-22T10:52:55;3.65;;;3.25;;
9310;SDS011;4694;52.464;13.480;2023-06-22T10:55:22;4.45;;;2.67;;
9310;SDS011;4694;52.464;13.480;2023-06-22T10:57:49;2.45;;;2.25;;
9310;SDS011;4694;52.464;13.480;2023-06-22T11:00:17;3.80;;;2.70;;
9310;SDS011;4694;52.464;13.480;2023-06-22T11:02:44;3.78;;;3.30;;
9310;SDS011;4694;52.464;13.480;2023-06-22T11:05:10;3.30;;;2.33;;
9310;SDS011;4694;52.464;13.480;2023-06-22T11:07:37;4.15;;;2.80;;
9310;SDS011;4694;52.464;13.480;2023-06-22T11:10:09;3.60;;;3.10;;
9310;SDS011;4694;52.464;13.480;2023-06-22T11:12:36;3.78;;;3.15;;
9310;SDS011;4694;52.464;13.480;2023-06-22T11:15:02;2.92;;;2.72;;
9310;SDS011;4694;52.464;13.480;2023-06-22T11:17:30;3.15;;;2.85;;
9310;SDS011;4694;52.464;13.480;2023-06-22T11:19:56;3.47;;;2.58;;
9310;SDS011;4694;52.464;13.480;2023-06-22T11:22:25;3.55;;;3.13;;
9310;SDS011;4694;52.464;13.480;2023-06-22T11:24:51;3.20;;;2.88;;
9310;SDS011;4694;52.464;13.480;2023-06-22T11:27:20;4.38;;;3.33;;
9310;SDS011;4694;52.464;13.480;2023-06-22T11:29:46;5.63;;;3.40;;
9310;SDS011;4694;52.464;13.480;2023-06-22T11:32:13;3.08;;;2.80;;
9310;SDS011;4694;52.464;13.480;2023-06-22T11:34:40;3.20;;;2.90;;
9310;SDS011;4694;52.464;13.480;2023-06-22T11:37:06;4.78;;;3.25;;
9310;SDS011;4694;52.464;13.480;2023-06-22T11:39:33;3.20;;;2.92;;
9310;SDS011;4694;52.464;13.480;2023-06-22T11:42:00;3.72;;;2.90;;
9310;SDS011;4694;52.464;13.480;2023-06-22T11:44:27;3.63;;;3.33;;
9310;SDS011;4694;52.464;13.480;2023-06-22T11:46:54;2.47;;;2.33;;
9310;SDS011;4694;52.464;13.480;2023-06-22T11:49:21;3.17;;;2.85;;
9310;SDS011;4694;52.464;13.480;2023-06-22T11:51:47;6.20;;;3.33;;
9310;SDS011;4694;52.464;13.480;2023-06-22T11:54:14;4.22;;;2.95;;
9310;SDS011;4694;52.464;13.480;2023-06-22T11:56:41;3.08;;;2.85;;
9310;SDS011;4694;52.464;13.480;2023-06-22T11:59:07;5.07;;;3.88;;
9310;SDS011;4694;52.464;13.480;2023-06-22T12:01:35;3.35;;;2.92;;
9310;SDS011;4694;52.464;13.480;2023-06-22T12:04:02;3.65;;;2.97;;
9310;SDS011;4694;52.464;13.480;2023-06-22T12:06:30;3.50;;;3.17;;
9310;SDS011;4694;52.464;13.480;2023-06-22T12:08:57;2.78;;;2.58;;
9310;SDS011;4694;52.464;13.480;2023-06-22T12:11:24;3.33;;;3.03;;
9310;SDS011;4694;52.464;13.480;2023-06-22T12:13:50;3.28;;;3.00;;
9310;SDS011;4694;52.464;13.480;2023-06-22T12:16:17;3.65;;;3.38;;
9310;SDS011;4694;52.464;13.480;2023-06-22T12:18:47;5.38;;;3.40;;
9310;SDS011;4694;52.464;13.480;2023-06-22T12:21:14;3.50;;;3.30;;
9310;SDS011;4694;52.464;13.480;2023-06-22T12:23:41;3.85;;;3.55;;
9310;SDS011;4694;52.464;13.480;2023-06-22T12:26:08;3.45;;;3.15;;
9310;SDS011;4694;52.464;13.480;2023-06-22T12:28:35;3.65;;;3.42;;
9310;SDS011;4694;52.464;13.480;2023-06-22T12:31:02;3.45;;;3.20;;
9310;SDS011;4694;52.464;13.480;2023-06-22T12:33:29;4.32;;;3.45;;
9310;SDS011;4694;52.464;13.480;2023-06-22T12:35:58;3.38;;;3.08;;
9310;SDS011;4694;52.464;13.480;2023-06-22T12:38:25;3.10;;;2.70;;
9310;SDS011;4694;52.464;13.480;2023-06-22T12:40:52;4.28;;;3.90;;
9310;SDS011;4694;52.464;13.480;2023-06-22T12:43:19;3.53;;;3.22;;
9310;SDS011;4694;52.464;13.480;2023-06-22T12:45:46;3.40;;;3.20;;
9310;SDS011;4694;52.464;13.480;2023-06-22T12:48:13;3.60;;;3.30;;
9310;SDS011;4694;52.464;13.480;2023-06-22T12:50:42;3.40;;;3.10;;
9310;SDS011;4694;52.464;13.480;2023-06-22T12:53:11;5.38;;;2.90;;
9310;SDS011;4694;52.464;13.480;2023-06-22T12:55:39;4.25;;;3.38;;
9310;SDS011;4694;52.464;13.480;2023-06-22T12:58:07;4.75;;;3.97;;
9310;SDS011;4694;52.464;13.480;2023-06-22T13:00:34;4.50;;;3.25;;
9310;SDS011;4694;52.464;13.480;2023-06-22T13:03:03;3.58;;;3.35;;
9310;SDS011;4694;52.464;13.480;2023-06-22T13:05:30;4.03;;;3.65;;
9310;SDS011;4694;52.464;13.480;2023-06-22T13:10:32;4.68;;;4.35;;
9310;SDS011;4694;52.464;13.480;2023-06-22T13:13:00;3.38;;;3.08;;
9310;SDS011;4694;52.464;13.480;2023-06-22T13:15:27;4.47;;;2.70;;
9310;SDS011;4694;52.464;13.480;2023-06-22T13:17:55;3.60;;;3.30;;
9310;SDS011;4694;52.464;13.480;2023-06-22T13:20:22;6.55;;;3.92;;
9310;SDS011;4694;52.464;13.480;2023-06-22T13:22:49;3.70;;;3.40;;
9310;SDS011;4694;52.464;13.480;2023-06-22T13:25:16;4.70;;;4.40;;
9310;SDS011;4694;52.464;13.480;2023-06-22T13:27:47;4.38;;;3.90;;
9310;SDS011;4694;52.464;13.480;2023-06-22T13:30:15;3.78;;;3.47;;
9310;SDS011;4694;52.464;13.480;2023-06-22T13:32:42;3.60;;;3.30;;
9310;SDS011;4694;52.464;13.480;2023-06-22T13:35:09;3.67;;;3.42;;
9310;SDS011;4694;52.464;13.480;2023-06-22T13:37:36;4.25;;;3.85;;
9310;SDS011;4694;52.464;13.480;2023-06-22T13:42:31;4.05;;;3.83;;
9310;SDS011;4694;52.464;13.480;2023-06-22T13:45:00;4.53;;;3.70;;
9310;SDS011;4694;52.464;13.480;2023-06-22T13:47:27;3.70;;;3.40;;
9310;SDS011;4694;52.464;13.480;2023-06-22T13:49:54;4.13;;;3.83;;
9310;SDS011;4694;52.464;13.480;2023-06-22T13:52:22;4.50;;;4.20;;
9310;SDS011;4694;52.464;13.480;2023-06-22T13:54:49;4.57;;;4.28;;
9310;SDS011;4694;52.464;13.480;2023-06-22T13:57:17;4.40;;;4.10;;
9310;SDS011;4694;52.464;13.480;2023-06-22T13:59:45;4.07;;;3.72;;
9310;SDS011;4694;52.464;13.480;2023-06-22T14:02:13;4.03;;;3.72;;
9310;SDS011;4694;52.464;13.480;2023-06-22T14:04:40;4.28;;;3.90;;
9310;SDS011;4694;52.464;13.480;2023-06-22T14:07:08;4.85;;;4.45;;
9310;SDS011;4694;52.464;13.480;2023-06-22T14:09:35;4.20;;;3.90;;
9310;SDS011;4694;52.464;13.480;2023-06-22T14:12:02;5.10;;;3.50;;
9310;SDS011;4694;52.464;13.480;2023-06-22T14:14:30;4.25;;;3.85;;
9310;SDS011;4694;52.464;13.480;2023-06-22T14:16:57;4.22;;;3.92;;
9310;SDS011;4694;52.464;13.480;2023-06-22T14:19:26;4.45;;;4.05;;
9310;SDS011;4694;52.464;13.480;2023-06-22T14:21:53;4.05;;;3.72;;
9310;SDS011;4694;52.464;13.480;2023-06-22T14:24:20;3.78;;;3.58;;
9310;SDS011;4694;52.464;13.480;2023-06-22T14:26:47;3.90;;;3.60;;
9310;SDS011;4694;52.464;13.480;2023-06-22T14:29:14;3.95;;;3.55;;
9310;SDS011;4694;52.464;13.480;2023-06-22T14:31:44;5.93;;;4.03;;
9310;SDS011;4694;52.464;13.480;2023-06-22T14:34:11;4.95;;;4.20;;
9310;SDS011;4694;52.464;13.480;2023-06-22T14:36:39;3.42;;;3.22;;
9310;SDS011;4694;52.464;13.480;2023-06-22T14:39:07;4.10;;;3.73;;
9310;SDS011;4694;52.464;13.480;2023-06-22T14:41:34;5.65;;;5.03;;
9310;SDS011;4694;52.464;13.480;2023-06-22T14:44:01;6.82;;;4.60;;
9310;SDS011;4694;52.464;13.480;2023-06-22T14:46:28;4.32;;;3.90;;
9310;SDS011;4694;52.464;13.480;2023-06-22T14:48:55;4.15;;;3.85;;
9310;SDS011;4694;52.464;13.480;2023-06-22T14:51:22;5.78;;;4.15;;
9310;SDS011;4694;52.464;13.480;2023-06-22T14:53:50;4.50;;;4.10;;
9310;SDS011;4694;52.464;13.480;2023-06-22T14:56:18;3.78;;;3.47;;
9310;SDS011;4694;52.464;13.480;2023-06-22T14:58:45;5.40;;;4.35;;
9310;SDS011;4694;52.464;13.480;2023-06-22T15:01:12;4.97;;;4.40;;
9310;SDS011;4694;52.464;13.480;2023-06-22T15:03:39;4.63;;;4.30;;